sensor_id;sensor_type;location;lat;lon;timestamp;temperature;humidity
5419;DHT22;2732;52.092;11.556;2022-08-01T00:01:00;20.60;99.90
5419;DHT22;2732;52.092;11.556;2022-08-01T00:06:00;20.60;99.90
5419;DHT22;2732;52.092;11.556;2022-08-01T00:11:01;20.60;99.90
5419;DHT22;2732;52.092;11.556;2022-08-01T00:16:01;20.60;99.90
5419;DHT22;2732;52.092;11.556;2022-08-01T00:21:03;20.60;99.90
5419;DHT22;2732;52.092;11.556;2022-08-01T00:26:04;20.60;99.90
5419;DHT22;2732;52.092;11.556;2022-08-01T00:31:05;20.50;99.90
5419;DHT22;2732;52.092;11.556;2022-08-01T00:36:06;20.60;99.90
5419;DHT22;2732;52.092;11.556;2022-08-01T00:41:07;20.50;99.90
5419;DHT22;2732;52.092;11.556;2022-08-01T00:46:08;20.50;99.90
5419;DHT22;2732;52.092;11.556;2022-08-01T00:51:09;20.50;99.90
5419;DHT22;2732;52.092;11.556;2022-08-01T00:56:10;20.50;99.90
5419;DHT22;2732;52.092;11.556;2022-08-01T01:01:10;20.40;99.90
5419;DHT22;2732;52.092;11.556;2022-08-01T01:06:13;20.40;99.90
5419;DHT22;2732;52.092;11.556;2022-08-01T01:11:25;20.40;99.90
5419;DHT22;2732;52.092;11.556;2022-08-01T01:16:30;20.40;99.90
5419;DHT22;2732;52.092;11.556;2022-08-01T01:27:05;20.40;99.90
5419;DHT22;2732;52.092;11.556;2022-08-01T01:32:17;20.40;99.90
5419;DHT22;2732;52.092;11.556;2022-08-01T01:37:21;20.30;99.90
5419;DHT22;2732;52.092;11.556;2022-08-01T01:42:25;20.30;99.90
5419;DHT22;2732;52.092;11.556;2022-08-01T01:47:27;20.30;99.90
5419;DHT22;2732;52.092;11.556;2022-08-01T01:52:29;20.30;99.90
5419;DHT22;2732;52.092;11.556;2022-08-01T01:57:32;20.30;99.90
5419;DHT22;2732;52.092;11.556;2022-08-01T02:02:37;20.30;99.90
5419;DHT22;2732;52.092;11.556;2022-08-01T02:07:39;20.30;99.90
5419;DHT22;2732;52.092;11.556;2022-08-01T02:12:43;20.30;99.90
5419;DHT22;2732;52.092;11.556;2022-08-01T02:17:48;20.30;99.90
5419;DHT22;2732;52.092;11.556;2022-08-01T02:22:53;20.30;99.90
5419;DHT22;2732;52.092;11.556;2022-08-01T02:28:04;20.30;99.90
5419;DHT22;2732;52.092;11.556;2022-08-01T02:33:10;20.30;99.90
5419;DHT22;2732;52.092;11.556;2022-08-01T02:38:13;20.20;99.90
5419;DHT22;2732;52.092;11.556;2022-08-01T02:43:18;20.20;99.90
5419;DHT22;2732;52.092;11.556;2022-08-01T02:48:23;20.20;99.90
5419;DHT22;2732;52.092;11.556;2022-08-01T02:53:28;20.20;99.90
5419;DHT22;2732;52.092;11.556;2022-08-01T02:58:33;20.20;99.90
5419;DHT22;2732;52.092;11.556;2022-08-01T03:03:37;20.20;99.90
5419;DHT22;2732;52.092;11.556;2022-08-01T03:08:38;20.20;99.90
5419;DHT22;2732;52.092;11.556;2022-08-01T03:13:41;20.10;99.90
5419;DHT22;2732;52.092;11.556;2022-08-01T03:18:43;20.20;99.90
5419;DHT22;2732;52.092;11.556;2022-08-01T03:23:45;20.10;99.90
5419;DHT22;2732;52.092;11.556;2022-08-01T03:28:47;20.10;99.90
5419;DHT22;2732;52.092;11.556;2022-08-01T03:33:49;20.10;99.90
5419;DHT22;2732;52.092;11.556;2022-08-01T03:38:50;20.10;99.90
5419;DHT22;2732;52.092;11.556;2022-08-01T03:44:04;20.10;99.90
5419;DHT22;2732;52.092;11.556;2022-08-01T03:49:22;20.10;99.90
5419;DHT22;2732;52.092;11.556;2022-08-01T03:54:25;20.10;99.90
5419;DHT22;2732;52.092;11.556;2022-08-01T03:59:30;20.10;99.90
5419;DHT22;2732;52.092;11.556;2022-08-01T04:04:31;20.10;99.90
5419;DHT22;2732;52.092;11.556;2022-08-01T04:09:33;20.10;99.90
5419;DHT22;2732;52.092;11.556;2022-08-01T04:14:33;20.10;99.90
5419;DHT22;2732;52.092;11.556;2022-08-01T04:19:34;20.20;99.90
5419;DHT22;2732;52.092;11.556;2022-08-01T04:24:36;20.20;99.90
5419;DHT22;2732;52.092;11.556;2022-08-01T04:29:38;20.20;99.90
5419;DHT22;2732;52.092;11.556;2022-08-01T04:34:41;20.20;99.90
5419;DHT22;2732;52.092;11.556;2022-08-01T04:39:45;20.20;99.90
5419;DHT22;2732;52.092;11.556;2022-08-01T04:44:47;20.30;99.90
5419;DHT22;2732;52.092;11.556;2022-08-01T04:49:48;20.40;99.90
5419;DHT22;2732;52.092;11.556;2022-08-01T04:54:49;20.40;99.90
5419;DHT22;2732;52.092;11.556;2022-08-01T04:59:50;20.40;99.90
5419;DHT22;2732;52.092;11.556;2022-08-01T05:04:56;20.40;99.90
5419;DHT22;2732;52.092;11.556;2022-08-01T05:09:57;20.60;99.90
5419;DHT22;2732;52.092;11.556;2022-08-01T05:14:58;20.60;99.90
5419;DHT22;2732;52.092;11.556;2022-08-01T05:19:59;20.70;99.90
5419;DHT22;2732;52.092;11.556;2022-08-01T05:25:00;20.80;99.90
5419;DHT22;2732;52.092;11.556;2022-08-01T05:30:01;20.90;99.90
5419;DHT22;2732;52.092;11.556;2022-08-01T05:35:02;20.90;99.90
5419;DHT22;2732;52.092;11.556;2022-08-01T05:40:05;21.00;99.90
5419;DHT22;2732;52.092;11.556;2022-08-01T05:45:06;20.90;99.90
5419;DHT22;2732;52.092;11.556;2022-08-01T05:50:07;21.00;99.90
5419;DHT22;2732;52.092;11.556;2022-08-01T05:55:09;21.00;99.90
5419;DHT22;2732;52.092;11.556;2022-08-01T06:00:10;21.10;99.90
5419;DHT22;2732;52.092;11.556;2022-08-01T06:05:12;21.20;99.90
5419;DHT22;2732;52.092;11.556;2022-08-01T06:10:13;21.30;99.90
5419;DHT22;2732;52.092;11.556;2022-08-01T06:15:14;21.30;99.90
5419;DHT22;2732;52.092;11.556;2022-08-01T06:20:15;21.30;99.90
5419;DHT22;2732;52.092;11.556;2022-08-01T06:25:16;21.30;99.90
5419;DHT22;2732;52.092;11.556;2022-08-01T06:30:18;21.30;99.90
5419;DHT22;2732;52.092;11.556;2022-08-01T06:35:19;21.30;99.90
5419;DHT22;2732;52.092;11.556;2022-08-01T06:40:20;21.40;99.90
5419;DHT22;2732;52.092;11.556;2022-08-01T06:45:21;21.40;99.90
5419;DHT22;2732;52.092;11.556;2022-08-01T06:50:22;21.40;99.90
5419;DHT22;2732;52.092;11.556;2022-08-01T06:55:23;21.50;99.90
5419;DHT22;2732;52.092;11.556;2022-08-01T07:00:25;21.60;99.90
5419;DHT22;2732;52.092;11.556;2022-08-01T07:05:27;21.90;99.90
5419;DHT22;2732;52.092;11.556;2022-08-01T07:10:31;22.10;99.90
5419;DHT22;2732;52.092;11.556;2022-08-01T07:15:31;22.20;99.90
5419;DHT22;2732;52.092;11.556;2022-08-01T07:20:32;22.30;99.90
5419;DHT22;2732;52.092;11.556;2022-08-01T07:25:33;22.30;99.90
5419;DHT22;2732;52.092;11.556;2022-08-01T07:30:33;22.40;99.90
5419;DHT22;2732;52.092;11.556;2022-08-01T07:35:34;22.20;99.90
5419;DHT22;2732;52.092;11.556;2022-08-01T07:40:38;22.10;99.90
5419;DHT22;2732;52.092;11.556;2022-08-01T07:45:39;22.20;99.90
5419;DHT22;2732;52.092;11.556;2022-08-01T07:50:41;22.60;99.90
5419;DHT22;2732;52.092;11.556;2022-08-01T07:55:42;22.90;99.90
5419;DHT22;2732;52.092;11.556;2022-08-01T08:00:42;23.30;99.90
5419;DHT22;2732;52.092;11.556;2022-08-01T08:05:43;23.30;99.90
5419;DHT22;2732;52.092;11.556;2022-08-01T08:10:44;23.10;99.90
5419;DHT22;2732;52.092;11.556;2022-08-01T08:15:45;22.70;99.90
5419;DHT22;2732;52.092;11.556;2022-08-01T08:20:46;22.50;99.90
5419;DHT22;2732;52.092;11.556;2022-08-01T08:25:46;22.30;99.90
5419;DHT22;2732;52.092;11.556;2022-08-01T08:30:47;22.20;99.90
5419;DHT22;2732;52.092;11.556;2022-08-01T08:35:48;22.30;99.90
5419;DHT22;2732;52.092;11.556;2022-08-01T08:40:49;22.50;99.90
5419;DHT22;2732;52.092;11.556;2022-08-01T08:45:50;23.00;99.90
5419;DHT22;2732;52.092;11.556;2022-08-01T08:50:51;23.90;99.90
5419;DHT22;2732;52.092;11.556;2022-08-01T08:55:53;24.70;99.90
5419;DHT22;2732;52.092;11.556;2022-08-01T09:00:55;25.30;99.90
5419;DHT22;2732;52.092;11.556;2022-08-01T09:05:56;24.70;99.90
5419;DHT22;2732;52.092;11.556;2022-08-01T09:10:56;24.30;99.90
5419;DHT22;2732;52.092;11.556;2022-08-01T09:15:57;24.00;99.90
5419;DHT22;2732;52.092;11.556;2022-08-01T09:21:17;24.20;99.90
5419;DHT22;2732;52.092;11.556;2022-08-01T09:26:21;24.70;99.90
5419;DHT22;2732;52.092;11.556;2022-08-01T09:31:40;25.20;99.90
5419;DHT22;2732;52.092;11.556;2022-08-01T09:36:47;25.00;99.90
5419;DHT22;2732;52.092;11.556;2022-08-01T09:41:55;24.70;99.90
5419;DHT22;2732;52.092;11.556;2022-08-01T09:46:57;24.60;99.90
5419;DHT22;2732;52.092;11.556;2022-08-01T09:51:59;24.90;99.90
5419;DHT22;2732;52.092;11.556;2022-08-01T10:02:25;25.40;99.90
5419;DHT22;2732;52.092;11.556;2022-08-01T10:12:58;26.00;98.90
5419;DHT22;2732;52.092;11.556;2022-08-01T10:18:02;26.70;97.60
5419;DHT22;2732;52.092;11.556;2022-08-01T10:23:05;27.40;96.80
5419;DHT22;2732;52.092;11.556;2022-08-01T10:28:13;27.50;95.90
5419;DHT22;2732;52.092;11.556;2022-08-01T10:33:17;27.20;95.70
5419;DHT22;2732;52.092;11.556;2022-08-01T10:38:18;26.90;95.90
5419;DHT22;2732;52.092;11.556;2022-08-01T10:43:19;26.70;96.00
5419;DHT22;2732;52.092;11.556;2022-08-01T10:48:30;26.60;96.10
5419;DHT22;2732;52.092;11.556;2022-08-01T10:53:35;26.60;96.10
5419;DHT22;2732;52.092;11.556;2022-08-01T10:58:38;26.90;96.00
5419;DHT22;2732;52.092;11.556;2022-08-01T11:03:44;27.10;95.40
5419;DHT22;2732;52.092;11.556;2022-08-01T11:08:57;28.40;94.00
5419;DHT22;2732;52.092;11.556;2022-08-01T11:19:09;27.50;93.70
5419;DHT22;2732;52.092;11.556;2022-08-01T11:24:10;26.90;94.30
5419;DHT22;2732;52.092;11.556;2022-08-01T11:29:14;26.70;94.70
5419;DHT22;2732;52.092;11.556;2022-08-01T11:34:16;26.70;94.70
5419;DHT22;2732;52.092;11.556;2022-08-01T11:39:17;26.80;94.40
5419;DHT22;2732;52.092;11.556;2022-08-01T11:44:21;27.00;94.10
5419;DHT22;2732;52.092;11.556;2022-08-01T11:54:41;27.10;94.30
5419;DHT22;2732;52.092;11.556;2022-08-01T11:59:45;27.30;94.00
5419;DHT22;2732;52.092;11.556;2022-08-01T12:04:57;27.20;93.90
5419;DHT22;2732;52.092;11.556;2022-08-01T12:10:17;27.30;93.60
5419;DHT22;2732;52.092;11.556;2022-08-01T12:15:21;27.60;93.30
5419;DHT22;2732;52.092;11.556;2022-08-01T12:20:26;27.60;93.30
5419;DHT22;2732;52.092;11.556;2022-08-01T12:25:28;27.70;92.90
5419;DHT22;2732;52.092;11.556;2022-08-01T12:30:30;28.50;92.30
5419;DHT22;2732;52.092;11.556;2022-08-01T12:35:36;29.30;90.70
5419;DHT22;2732;52.092;11.556;2022-08-01T12:40:44;29.70;89.70
5419;DHT22;2732;52.092;11.556;2022-08-01T12:45:49;30.10;88.10
5419;DHT22;2732;52.092;11.556;2022-08-01T12:50:51;29.70;87.60
5419;DHT22;2732;52.092;11.556;2022-08-01T12:55:54;29.00;88.10
5419;DHT22;2732;52.092;11.556;2022-08-01T13:01:09;28.40;88.80
5419;DHT22;2732;52.092;11.556;2022-08-01T13:06:13;28.80;88.50
5419;DHT22;2732;52.092;11.556;2022-08-01T13:11:15;29.20;86.90
5419;DHT22;2732;52.092;11.556;2022-08-01T13:16:19;29.00;86.50
5419;DHT22;2732;52.092;11.556;2022-08-01T13:21:23;29.10;86.70
5419;DHT22;2732;52.092;11.556;2022-08-01T13:26:42;29.00;86.10
5419;DHT22;2732;52.092;11.556;2022-08-01T13:31:47;29.30;85.20
5419;DHT22;2732;52.092;11.556;2022-08-01T13:36:47;29.10;85.40
5419;DHT22;2732;52.092;11.556;2022-08-01T13:41:51;29.30;84.60
5419;DHT22;2732;52.092;11.556;2022-08-01T13:46:52;29.10;84.20
5419;DHT22;2732;52.092;11.556;2022-08-01T13:51:52;29.90;82.80
5419;DHT22;2732;52.092;11.556;2022-08-01T13:56:53;30.30;80.70
5419;DHT22;2732;52.092;11.556;2022-08-01T14:01:54;30.30;79.50
5419;DHT22;2732;52.092;11.556;2022-08-01T14:06:55;30.50;79.30
5419;DHT22;2732;52.092;11.556;2022-08-01T14:11:55;30.70;79.20
5419;DHT22;2732;52.092;11.556;2022-08-01T14:16:56;31.20;77.90
5419;DHT22;2732;52.092;11.556;2022-08-01T14:21:57;31.50;75.90
5419;DHT22;2732;52.092;11.556;2022-08-01T14:26:58;31.80;75.10
5419;DHT22;2732;52.092;11.556;2022-08-01T14:31:58;31.50;74.00
5419;DHT22;2732;52.092;11.556;2022-08-01T14:36:59;31.50;72.60
5419;DHT22;2732;52.092;11.556;2022-08-01T14:41:59;31.30;71.80
5419;DHT22;2732;52.092;11.556;2022-08-01T14:47:00;30.90;72.00
5419;DHT22;2732;52.092;11.556;2022-08-01T14:52:01;30.80;71.90
5419;DHT22;2732;52.092;11.556;2022-08-01T14:57:01;30.90;72.20
5419;DHT22;2732;52.092;11.556;2022-08-01T15:02:02;30.50;71.90
5419;DHT22;2732;52.092;11.556;2022-08-01T15:07:03;30.30;72.40
5419;DHT22;2732;52.092;11.556;2022-08-01T15:12:04;30.50;72.30
5419;DHT22;2732;52.092;11.556;2022-08-01T15:17:04;30.50;72.30
5419;DHT22;2732;52.092;11.556;2022-08-01T15:22:06;30.60;72.00
5419;DHT22;2732;52.092;11.556;2022-08-01T15:27:07;30.40;71.20
5419;DHT22;2732;52.092;11.556;2022-08-01T15:32:09;30.10;71.20
5419;DHT22;2732;52.092;11.556;2022-08-01T15:37:10;29.60;71.90
5419;DHT22;2732;52.092;11.556;2022-08-01T15:42:13;29.40;72.50
5419;DHT22;2732;52.092;11.556;2022-08-01T15:47:15;29.40;72.90
5419;DHT22;2732;52.092;11.556;2022-08-01T15:52:16;29.20;72.80
5419;DHT22;2732;52.092;11.556;2022-08-01T15:57:17;29.10;73.10
5419;DHT22;2732;52.092;11.556;2022-08-01T16:02:17;28.90;74.00
5419;DHT22;2732;52.092;11.556;2022-08-01T16:07:18;28.80;74.30
5419;DHT22;2732;52.092;11.556;2022-08-01T16:12:18;28.60;74.30
5419;DHT22;2732;52.092;11.556;2022-08-01T16:17:19;28.30;74.90
5419;DHT22;2732;52.092;11.556;2022-08-01T16:22:19;28.30;75.50
5419;DHT22;2732;52.092;11.556;2022-08-01T16:27:20;28.30;75.90
5419;DHT22;2732;52.092;11.556;2022-08-01T16:32:21;28.60;75.70
5419;DHT22;2732;52.092;11.556;2022-08-01T16:37:21;28.60;75.50
5419;DHT22;2732;52.092;11.556;2022-08-01T16:42:22;28.50;75.30
5419;DHT22;2732;52.092;11.556;2022-08-01T16:47:23;28.20;75.10
5419;DHT22;2732;52.092;11.556;2022-08-01T16:52:23;28.00;76.10
5419;DHT22;2732;52.092;11.556;2022-08-01T16:57:24;28.00;75.50
5419;DHT22;2732;52.092;11.556;2022-08-01T17:02:24;27.90;76.10
5419;DHT22;2732;52.092;11.556;2022-08-01T17:07:25;27.60;76.60
5419;DHT22;2732;52.092;11.556;2022-08-01T17:12:29;27.50;76.80
5419;DHT22;2732;52.092;11.556;2022-08-01T17:17:31;27.40;76.90
5419;DHT22;2732;52.092;11.556;2022-08-01T17:22:32;27.30;77.30
5419;DHT22;2732;52.092;11.556;2022-08-01T17:27:32;27.10;77.60
5419;DHT22;2732;52.092;11.556;2022-08-01T17:32:33;27.00;77.90
5419;DHT22;2732;52.092;11.556;2022-08-01T17:37:38;27.00;78.20
5419;DHT22;2732;52.092;11.556;2022-08-01T17:42:40;26.90;78.00
5419;DHT22;2732;52.092;11.556;2022-08-01T17:47:41;26.70;78.20
5419;DHT22;2732;52.092;11.556;2022-08-01T17:52:42;26.60;78.30
5419;DHT22;2732;52.092;11.556;2022-08-01T17:57:43;26.30;79.10
5419;DHT22;2732;52.092;11.556;2022-08-01T18:02:43;26.10;78.30
5419;DHT22;2732;52.092;11.556;2022-08-01T18:07:45;25.90;78.80
5419;DHT22;2732;52.092;11.556;2022-08-01T18:12:46;25.60;79.30
5419;DHT22;2732;52.092;11.556;2022-08-01T18:17:47;25.40;80.10
5419;DHT22;2732;52.092;11.556;2022-08-01T18:22:47;25.30;80.90
5419;DHT22;2732;52.092;11.556;2022-08-01T18:27:48;25.10;81.30
5419;DHT22;2732;52.092;11.556;2022-08-01T18:32:49;24.90;81.80
5419;DHT22;2732;52.092;11.556;2022-08-01T18:37:52;24.70;82.30
5419;DHT22;2732;52.092;11.556;2022-08-01T18:42:53;24.40;82.60
5419;DHT22;2732;52.092;11.556;2022-08-01T18:47:53;24.20;82.60
5419;DHT22;2732;52.092;11.556;2022-08-01T18:52:54;24.10;83.30
5419;DHT22;2732;52.092;11.556;2022-08-01T18:57:55;23.90;83.80
5419;DHT22;2732;52.092;11.556;2022-08-01T19:02:56;23.70;83.90
5419;DHT22;2732;52.092;11.556;2022-08-01T19:07:56;23.50;84.30
5419;DHT22;2732;52.092;11.556;2022-08-01T19:12:57;23.30;84.60
5419;DHT22;2732;52.092;11.556;2022-08-01T19:17:57;23.20;85.50
5419;DHT22;2732;52.092;11.556;2022-08-01T19:22:58;23.00;86.30
5419;DHT22;2732;52.092;11.556;2022-08-01T19:28:00;22.80;86.70
5419;DHT22;2732;52.092;11.556;2022-08-01T19:33:01;22.60;87.10
5419;DHT22;2732;52.092;11.556;2022-08-01T19:38:02;22.40;87.70
5419;DHT22;2732;52.092;11.556;2022-08-01T19:43:05;22.20;87.90
5419;DHT22;2732;52.092;11.556;2022-08-01T19:48:05;22.10;88.50
5419;DHT22;2732;52.092;11.556;2022-08-01T19:53:08;21.90;88.80
5419;DHT22;2732;52.092;11.556;2022-08-01T19:58:11;21.80;90.10
5419;DHT22;2732;52.092;11.556;2022-08-01T20:03:16;21.60;90.10
5419;DHT22;2732;52.092;11.556;2022-08-01T20:08:18;21.50;90.20
5419;DHT22;2732;52.092;11.556;2022-08-01T20:13:20;21.40;90.30
5419;DHT22;2732;52.092;11.556;2022-08-01T20:18:21;21.30;90.50
5419;DHT22;2732;52.092;11.556;2022-08-01T20:23:23;21.10;90.60
5419;DHT22;2732;52.092;11.556;2022-08-01T20:28:27;21.00;90.90
5419;DHT22;2732;52.092;11.556;2022-08-01T20:33:28;20.90;91.10
5419;DHT22;2732;52.092;11.556;2022-08-01T20:38:29;20.80;91.40
5419;DHT22;2732;52.092;11.556;2022-08-01T20:43:32;20.70;91.50
5419;DHT22;2732;52.092;11.556;2022-08-01T20:48:33;20.60;91.60
5419;DHT22;2732;52.092;11.556;2022-08-01T20:53:35;20.60;91.90
5419;DHT22;2732;52.092;11.556;2022-08-01T21:04:46;20.50;92.00
5419;DHT22;2732;52.092;11.556;2022-08-01T21:10:10;20.50;92.10
5419;DHT22;2732;52.092;11.556;2022-08-01T21:15:15;20.40;92.20
5419;DHT22;2732;52.092;11.556;2022-08-01T21:20:18;20.40;92.30
5419;DHT22;2732;52.092;11.556;2022-08-01T21:25:25;20.40;92.40
5419;DHT22;2732;52.092;11.556;2022-08-01T21:30:31;20.30;92.50
5419;DHT22;2732;52.092;11.556;2022-08-01T21:35:33;20.30;92.70
5419;DHT22;2732;52.092;11.556;2022-08-01T21:40:34;20.30;92.90
5419;DHT22;2732;52.092;11.556;2022-08-01T21:45:37;20.20;93.00
5419;DHT22;2732;52.092;11.556;2022-08-01T21:50:54;20.10;92.90
5419;DHT22;2732;52.092;11.556;2022-08-01T22:02:03;20.00;92.80
5419;DHT22;2732;52.092;11.556;2022-08-01T22:07:12;19.90;92.70
5419;DHT22;2732;52.092;11.556;2022-08-01T22:12:16;19.80;92.70
5419;DHT22;2732;52.092;11.556;2022-08-01T22:17:20;19.70;92.80
5419;DHT22;2732;52.092;11.556;2022-08-01T22:22:22;19.60;92.80
5419;DHT22;2732;52.092;11.556;2022-08-01T22:27:24;19.50;92.80
5419;DHT22;2732;52.092;11.556;2022-08-01T22:32:27;19.40;92.90
5419;DHT22;2732;52.092;11.556;2022-08-01T22:37:29;19.40;93.00
5419;DHT22;2732;52.092;11.556;2022-08-01T22:58:29;18.90;93.40
5419;DHT22;2732;52.092;11.556;2022-08-01T23:03:35;18.90;93.60
5419;DHT22;2732;52.092;11.556;2022-08-01T23:08:39;18.80;93.60
5419;DHT22;2732;52.092;11.556;2022-08-01T23:13:40;18.70;93.70
5419;DHT22;2732;52.092;11.556;2022-08-01T23:18:43;18.60;93.80
5419;DHT22;2732;52.092;11.556;2022-08-01T23:23:46;18.50;93.90
5419;DHT22;2732;52.092;11.556;2022-08-01T23:28:47;18.40;94.00
5419;DHT22;2732;52.092;11.556;2022-08-01T23:33:47;18.30;93.90
5419;DHT22;2732;52.092;11.556;2022-08-01T23:38:48;18.20;94.00
5419;DHT22;2732;52.092;11.556;2022-08-01T23:43:49;18.20;94.10
5419;DHT22;2732;52.092;11.556;2022-08-01T23:48:49;18.00;94.20
5419;DHT22;2732;52.092;11.556;2022-08-01T23:53:50;17.90;94.20
5419;DHT22;2732;52.092;11.556;2022-08-01T23:58:51;17.80;94.30
